createdAt,value
2022-08-20T04:02:47.472Z,19.90
2022-08-20T04:05:19.284Z,19.90
2022-08-20T04:07:51.164Z,19.90
2022-08-20T04:10:22.847Z,19.90
2022-08-20T04:13:07.509Z,19.90
2022-08-20T04:15:39.215Z,19.90
2022-08-20T04:18:13.734Z,19.90
2022-08-20T04:20:45.474Z,19.90
2022-08-20T04:25:49.183Z,20.00
2022-08-20T04:28:21.897Z,19.90
2022-08-20T04:30:53.705Z,19.90
2022-08-20T07:11:33.053Z,22.80
2022-08-20T07:16:36.813Z,24.70
2022-08-20T07:19:08.492Z,25.00
2022-08-20T07:21:41.633Z,24.70
2022-08-20T07:24:13.306Z,25.10
2022-08-20T07:26:45.014Z,25.80
2022-08-20T07:29:16.716Z,26.50
2022-08-20T07:31:53.460Z,27.20
2022-08-20T07:34:25.189Z,27.30
2022-08-20T07:37:00.060Z,27.50
2022-08-20T07:39:31.791Z,27.80
2022-08-20T07:42:04.159Z,28.20
2022-08-20T07:44:35.827Z,28.20
2022-08-20T07:47:07.569Z,27.90
2022-08-20T07:49:39.289Z,27.80
2022-08-20T07:52:12.376Z,27.30
2022-08-20T07:54:44.067Z,26.90
2022-08-20T07:57:15.761Z,26.50
2022-08-20T07:59:47.508Z,26.90
2022-08-20T08:02:19.195Z,26.90
2022-08-20T08:04:50.903Z,26.60
2022-08-20T08:07:23.954Z,26.60
2022-08-20T08:09:55.644Z,26.80
2022-08-20T08:12:28.381Z,27.10
2022-08-20T08:15:00.059Z,27.40
2022-08-20T08:17:31.749Z,27.40
2022-08-20T08:20:04.444Z,26.90
2022-08-20T08:22:37.524Z,26.30
2022-08-20T08:25:09.680Z,25.70
2022-08-20T08:27:41.383Z,25.00
2022-08-20T08:30:13.396Z,24.40
2022-08-20T08:32:45.119Z,24.00
2022-08-20T08:35:16.802Z,23.80
2022-08-20T08:37:49.878Z,23.50
2022-08-20T08:40:21.664Z,23.30
2022-08-20T08:42:54.076Z,23.00
2022-08-20T08:45:26.950Z,22.90
2022-08-20T08:47:58.637Z,22.90
2022-08-20T08:50:52.884Z,23.00
2022-08-20T08:53:26.010Z,22.90
2022-08-20T08:55:57.711Z,23.00
2022-08-20T08:58:29.449Z,23.10
2022-08-20T09:01:06.863Z,23.30
2022-08-20T09:03:41.189Z,23.30
2022-08-20T09:06:14.327Z,23.30
2022-08-20T09:08:49.470Z,23.30
2022-08-20T09:11:21.770Z,23.30
2022-08-20T09:13:53.482Z,23.40
2022-08-20T09:16:25.451Z,23.40
2022-08-20T09:18:59.694Z,23.30
2022-08-20T09:21:31.405Z,23.20
2022-08-20T09:24:04.775Z,23.20
2022-08-20T09:26:39.175Z,23.20
2022-08-20T09:29:11.008Z,23.10
2022-08-20T09:31:42.748Z,23.20
2022-08-20T09:34:14.513Z,23.20
2022-08-20T09:36:46.211Z,23.10
2022-08-20T09:39:19.241Z,22.90
2022-08-20T09:41:50.924Z,22.80
2022-08-20T09:44:22.625Z,22.70
2022-08-20T09:46:54.390Z,22.70
2022-08-20T09:49:26.089Z,22.90
2022-08-20T09:51:57.800Z,23.00
2022-08-20T09:54:30.912Z,22.80
2022-08-20T09:57:04.583Z,22.70
2022-08-20T09:59:36.361Z,22.60
2022-08-20T10:02:08.090Z,22.50
2022-08-20T10:04:39.826Z,22.60
2022-08-20T10:07:13.104Z,22.50
2022-08-20T10:09:49.064Z,22.40
2022-08-20T10:12:20.760Z,22.30
2022-08-20T10:14:52.490Z,22.40
2022-08-20T10:17:24.214Z,22.40
2022-08-20T10:19:55.892Z,22.50
2022-08-20T10:22:27.604Z,22.50
2022-08-20T10:25:00.625Z,22.60
2022-08-20T10:27:32.311Z,22.80
2022-08-20T10:30:04.889Z,22.90
2022-08-20T10:32:36.574Z,22.80
2022-08-20T10:35:08.441Z,22.70
2022-08-20T10:37:40.147Z,22.80
2022-08-20T10:40:13.906Z,22.90
2022-08-20T10:42:45.732Z,22.90
2022-08-20T10:45:17.580Z,23.10
2022-08-20T10:47:49.286Z,23.10
2022-08-20T10:50:20.953Z,23.00
2022-08-20T10:52:52.662Z,23.20
2022-08-20T10:55:26.107Z,23.30
2022-08-20T10:57:57.931Z,23.50
2022-08-20T11:00:29.770Z,23.60
2022-08-20T11:03:01.592Z,23.60
2022-08-20T11:05:33.427Z,23.60
2022-08-20T11:08:05.494Z,23.70
2022-08-20T11:10:38.710Z,23.70
2022-08-20T11:13:10.437Z,23.70
2022-08-20T11:15:42.746Z,23.60
2022-08-20T11:18:14.461Z,23.60
2022-08-20T11:20:46.153Z,23.50
2022-08-20T11:23:17.898Z,23.30
2022-08-20T11:25:50.920Z,23.40
2022-08-20T11:28:31.181Z,23.30
2022-08-20T11:31:03.161Z,23.30
2022-08-20T11:33:34.832Z,23.30
2022-08-20T11:36:07.134Z,23.50
2022-08-20T11:38:38.827Z,23.70
2022-08-20T11:41:11.904Z,23.90
2022-08-20T11:43:59.525Z,24.00
2022-08-20T11:46:35.253Z,24.20
2022-08-20T11:49:06.940Z,24.30
2022-08-20T11:51:49.183Z,24.30
2022-08-20T11:54:21.921Z,24.40
2022-08-20T11:56:54.994Z,24.40
2022-08-20T11:59:26.794Z,24.60
2022-08-20T12:02:03.150Z,24.90
2022-08-20T12:04:35.281Z,24.80
2022-08-20T12:07:10.421Z,24.50
2022-08-20T12:09:50.428Z,24.40
2022-08-20T12:12:24.384Z,24.50
2022-08-20T12:14:56.068Z,24.80
2022-08-20T12:17:28.568Z,25.10
2022-08-20T12:20:01.520Z,25.20
2022-08-20T12:22:33.213Z,24.90
2022-08-20T12:25:05.705Z,24.40
2022-08-20T12:27:38.842Z,24.10
2022-08-20T12:30:12.066Z,24.00
2022-08-20T12:32:43.774Z,23.90
2022-08-20T12:35:16.222Z,23.70
2022-08-20T12:37:47.966Z,23.50
2022-08-20T12:40:24.523Z,23.30
2022-08-20T12:43:05.127Z,23.10
2022-08-20T12:45:37.243Z,23.00
2022-08-20T12:48:10.198Z,23.10
2022-08-20T12:50:42.660Z,23.40
2022-08-20T12:53:14.364Z,23.70
2022-08-20T12:55:46.141Z,23.80
2022-08-20T12:58:19.241Z,24.00
2022-08-20T13:00:51.539Z,23.70
2022-08-20T13:03:23.276Z,23.40
2022-08-20T13:05:54.962Z,23.30
2022-08-20T13:08:26.653Z,23.20
2022-08-20T13:10:58.532Z,23.20
2022-08-20T13:13:31.582Z,23.30
2022-08-20T13:16:03.774Z,23.30
2022-08-20T13:18:35.445Z,23.30
2022-08-20T13:21:07.144Z,23.50
2022-08-20T13:23:38.847Z,23.70
2022-08-20T13:26:10.544Z,23.90
2022-08-20T13:28:43.583Z,24.10
2022-08-20T13:31:15.283Z,24.40
2022-08-20T13:33:46.963Z,24.60
2022-08-20T13:36:18.687Z,24.70
2022-08-20T13:38:50.359Z,24.70
2022-08-20T13:41:22.068Z,24.70
2022-08-20T13:43:55.120Z,24.70
2022-08-20T13:46:26.903Z,24.90
2022-08-20T13:48:58.563Z,24.50
2022-08-20T13:51:30.479Z,24.50
2022-08-20T13:54:02.455Z,24.50
2022-08-20T13:56:34.422Z,24.50
2022-08-20T14:01:44.187Z,24.50
2022-08-20T14:04:15.943Z,24.70
2022-08-20T14:06:47.655Z,24.70
2022-08-20T14:09:19.333Z,24.80
2022-08-20T14:11:51.047Z,24.70
2022-08-20T14:14:24.086Z,24.80
2022-08-20T14:16:55.796Z,24.90
2022-08-20T14:19:27.508Z,25.00
2022-08-20T14:21:59.203Z,24.90
2022-08-20T14:24:30.907Z,24.90
2022-08-20T14:27:03.488Z,24.90
2022-08-20T14:29:37.296Z,24.90
2022-08-20T14:32:09.101Z,24.90
2022-08-20T14:34:40.786Z,24.80
2022-08-20T14:37:14.013Z,24.80
2022-08-20T14:39:46.768Z,24.70
2022-08-20T14:42:18.605Z,24.60
2022-08-20T14:44:51.654Z,24.50
2022-08-20T14:47:24.916Z,24.50
2022-08-20T14:49:58.645Z,24.40
2022-08-20T14:52:30.477Z,24.40
2022-08-20T14:55:02.276Z,24.20
2022-08-20T14:57:34.220Z,24.20
2022-08-20T15:00:08.996Z,24.20
2022-08-20T15:02:40.733Z,24.20
2022-08-20T15:05:12.636Z,24.20
2022-08-20T15:07:45.308Z,24.20
2022-08-20T15:10:20.238Z,24.20
2022-08-20T15:12:51.968Z,24.20
2022-08-20T15:15:25.131Z,24.20
2022-08-20T15:17:58.131Z,24.20
2022-08-20T15:20:30.779Z,24.20
2022-08-20T15:23:02.750Z,24.20
2022-08-20T15:25:36.691Z,24.20
2022-08-20T15:28:09.554Z,24.10
2022-08-20T15:30:42.574Z,24.10
2022-08-20T15:33:14.280Z,24.10
2022-08-20T15:35:46.189Z,24.00
2022-08-20T15:38:17.896Z,24.00
2022-08-20T15:40:49.577Z,24.10
2022-08-20T15:43:21.303Z,24.10
2022-08-20T15:45:54.394Z,24.10
2022-08-20T15:48:31.395Z,24.10
2022-08-20T15:51:18.656Z,24.10
2022-08-20T15:53:57.475Z,24.10
2022-08-20T15:56:40.851Z,24.10
2022-08-20T15:59:25.041Z,24.10
2022-08-20T16:02:03.822Z,24.10
2022-08-20T16:05:02.208Z,24.10
2022-08-20T16:07:36.958Z,24.10
2022-08-20T16:10:15.517Z,24.10
2022-08-20T16:12:48.357Z,24.00
2022-08-20T16:15:23.898Z,24.00
2022-08-20T16:17:59.799Z,24.00
2022-08-20T16:20:35.444Z,24.00
2022-08-20T16:23:07.565Z,23.90
2022-08-20T16:25:43.441Z,23.90
2022-08-20T16:28:20.673Z,23.90
2022-08-20T16:30:54.756Z,23.90
2022-08-20T16:33:29.411Z,23.80
2022-08-20T16:36:03.643Z,23.90
2022-08-20T16:38:41.583Z,23.90
2022-08-20T16:41:14.503Z,23.80
2022-08-20T16:43:52.038Z,23.90
2022-08-20T16:46:25.845Z,23.90
2022-08-20T16:48:59.636Z,23.90
2022-08-20T16:51:38.266Z,23.90
2022-08-20T16:54:10.469Z,23.70
2022-08-20T16:56:43.061Z,24.30
2022-08-20T16:59:24.580Z,23.70
2022-08-20T17:02:07.002Z,23.80
2022-08-20T17:04:58.557Z,23.60
2022-08-20T17:07:43.140Z,23.60
2022-08-20T17:10:17.776Z,23.60
2022-08-20T17:12:53.954Z,23.50
2022-08-20T17:15:26.910Z,23.50
2022-08-20T17:18:15.783Z,23.50
2022-08-20T17:20:48.810Z,23.50
2022-08-20T17:23:20.885Z,23.40
2022-08-20T17:25:57.337Z,23.40
2022-08-20T17:28:34.526Z,23.40
2022-08-20T17:31:06.843Z,23.30
2022-08-20T17:33:39.277Z,23.30
2022-08-20T17:36:18.501Z,23.30
2022-08-20T17:38:51.085Z,23.20
2022-08-20T17:41:26.346Z,23.20
2022-08-20T17:43:58.475Z,23.10
2022-08-20T17:46:32.424Z,23.10
2022-08-20T17:49:06.527Z,23.10
2022-08-20T17:51:42.960Z,22.90
2022-08-20T17:54:19.016Z,22.90
2022-08-20T17:56:52.422Z,22.90
2022-08-20T17:59:59.545Z,22.90
2022-08-20T18:02:17.062Z,22.90
2022-08-20T18:04:49.254Z,22.80
2022-08-20T18:07:26.077Z,22.80
2022-08-20T18:10:00.220Z,22.70
2022-08-20T18:12:34.877Z,22.70
2022-08-20T18:15:08.577Z,22.60
2022-08-20T18:17:57.717Z,22.60
2022-08-20T18:20:42.424Z,22.50
2022-08-20T18:23:17.870Z,22.50
2022-08-20T18:25:51.174Z,22.40
2022-08-20T18:28:25.285Z,22.30
2022-08-20T18:30:58.491Z,22.30
2022-08-20T18:33:31.234Z,22.20
2022-08-20T18:36:09.454Z,22.10
2022-08-20T18:38:42.469Z,22.10
2022-08-20T18:41:15.541Z,22.00
2022-08-20T18:43:47.214Z,21.90
2022-08-20T18:46:21.238Z,21.80
2022-08-20T18:48:55.697Z,21.80
2022-08-20T18:51:32.057Z,21.70
2022-08-20T18:54:05.274Z,21.60
2022-08-20T18:56:39.746Z,21.60
2022-08-20T18:59:14.994Z,21.50
2022-08-20T19:01:47.351Z,21.40
2022-08-20T19:04:25.994Z,21.30
2022-08-20T19:07:02.412Z,21.40
2022-08-20T19:09:49.876Z,21.30
2022-08-20T19:12:29.801Z,22.60
2022-08-20T19:15:02.087Z,21.20
2022-08-20T19:17:45.179Z,21.20
2022-08-20T19:20:18.503Z,21.10
2022-08-20T19:22:50.713Z,21.10
2022-08-20T19:25:28.417Z,21.00
2022-08-20T19:28:01.050Z,21.00
2022-08-20T19:30:35.456Z,21.00
2022-08-20T19:33:07.734Z,20.90
2022-08-20T19:35:39.722Z,20.90
2022-08-20T19:38:15.191Z,20.80
2022-08-20T19:40:49.525Z,20.80
2022-08-20T19:43:27.210Z,20.70
2022-08-20T19:45:58.894Z,20.70
2022-08-20T19:48:38.477Z,20.60
2022-08-20T19:51:12.978Z,20.50
2022-08-20T19:53:45.714Z,21.60
2022-08-20T19:56:19.516Z,20.40
2022-08-20T19:59:01.541Z,20.40
2022-08-20T20:01:33.695Z,20.30
2022-08-20T20:04:16.490Z,20.30
2022-08-20T20:06:48.306Z,20.20
2022-08-20T20:09:22.282Z,20.20
2022-08-20T20:11:56.282Z,20.20
2022-08-20T20:14:29.161Z,20.10
2022-08-20T20:17:01.219Z,20.10
2022-08-20T20:19:43.874Z,20.10
2022-08-20T20:22:19.966Z,20.00
2022-08-20T20:24:59.955Z,20.00
2022-08-20T20:27:33.589Z,19.90
2022-08-20T20:30:07.135Z,19.80
2022-08-20T20:32:39.069Z,19.80
2022-08-20T20:35:10.733Z,19.80
2022-08-20T20:37:49.943Z,19.70
2022-08-20T20:40:25.422Z,19.70
2022-08-20T20:43:01.294Z,19.70
2022-08-20T20:45:34.258Z,19.60
2022-08-20T20:48:14.721Z,19.60
2022-08-20T20:50:46.745Z,19.60
2022-08-20T20:53:37.703Z,19.50
2022-08-20T20:56:28.949Z,19.40
2022-08-20T20:59:06.645Z,19.40
2022-08-20T21:01:48.129Z,19.40
2022-08-20T21:04:22.933Z,19.50
2022-08-20T21:06:55.803Z,18.40
2022-08-20T21:09:27.478Z,19.40
2022-08-20T21:11:59.282Z,19.10
2022-08-20T21:14:32.293Z,19.30
2022-08-20T21:17:05.312Z,19.30
2022-08-20T21:19:42.336Z,19.30
2022-08-20T21:22:17.770Z,19.30
2022-08-20T21:24:49.439Z,19.20
2022-08-20T21:27:22.838Z,19.20
2022-08-20T21:29:55.885Z,19.20
2022-08-20T21:32:27.578Z,19.10
2022-08-20T21:34:59.246Z,19.10
2022-08-20T21:37:30.946Z,19.10
2022-08-20T21:40:03.147Z,19.00
2022-08-20T21:42:35.110Z,19.00
2022-08-20T21:45:13.518Z,19.00
2022-08-20T21:47:45.317Z,19.00
2022-08-20T21:50:20.584Z,18.90
2022-08-20T21:52:55.526Z,18.90
2022-08-20T21:58:10.576Z,18.90
